sensor_id;sensor_type;location;lat;lon;timestamp;P1;durP1;ratioP1;P2;durP2;ratioP2
21448;SDS011;10885;52.830;13.788;2022-09-30T05:02:52;9.93;;;4.68;;
21448;SDS011;10885;52.830;13.788;2022-09-30T05:08:13;7.68;;;5.15;;
21448;SDS011;10885;52.830;13.788;2022-09-30T05:24:17;6.50;;;4.60;;
21448;SDS011;10885;52.830;13.788;2022-09-30T05:29:38;9.25;;;4.75;;
21448;SDS011;10885;52.830;13.788;2022-09-30T05:34:59;6.95;;;4.47;;
21448;SDS011;10885;52.830;13.788;2022-09-30T05:40:22;20.13;;;5.80;;
21448;SDS011;10885;52.830;13.788;2022-09-30T05:45:50;10.50;;;4.50;;
21448;SDS011;10885;52.830;13.788;2022-09-30T05:51:12;11.48;;;5.30;;
21448;SDS011;10885;52.830;13.788;2022-09-30T05:56:34;4.60;;;3.83;;
21448;SDS011;10885;52.830;13.788;2022-09-30T06:01:55;5.40;;;4.15;;
21448;SDS011;10885;52.830;13.788;2022-09-30T06:07:15;5.97;;;3.83;;
21448;SDS011;10885;52.830;13.788;2022-09-30T06:12:37;8.10;;;4.45;;
21448;SDS011;10885;52.830;13.788;2022-09-30T06:23:19;6.53;;;4.43;;
21448;SDS011;10885;52.830;13.788;2022-09-30T06:28:40;7.97;;;5.00;;
21448;SDS011;10885;52.830;13.788;2022-09-30T06:34:02;9.82;;;6.85;;
21448;SDS011;10885;52.830;13.788;2022-09-30T06:39:24;10.75;;;6.72;;
21448;SDS011;10885;52.830;13.788;2022-09-30T06:44:47;20.40;;;11.15;;
21448;SDS011;10885;52.830;13.788;2022-09-30T06:50:13;20.55;;;13.30;;
21448;SDS011;10885;52.830;13.788;2022-09-30T06:55:45;18.58;;;11.23;;
21448;SDS011;10885;52.830;13.788;2022-09-30T07:01:06;13.00;;;9.13;;
21448;SDS011;10885;52.830;13.788;2022-09-30T07:06:27;9.73;;;7.25;;
21448;SDS011;10885;52.830;13.788;2022-09-30T07:11:48;11.52;;;6.72;;
21448;SDS011;10885;52.830;13.788;2022-09-30T07:17:09;7.53;;;5.75;;
21448;SDS011;10885;52.830;13.788;2022-09-30T07:22:30;7.57;;;5.78;;
21448;SDS011;10885;52.830;13.788;2022-09-30T07:27:51;15.93;;;6.97;;
21448;SDS011;10885;52.830;13.788;2022-09-30T07:33:14;34.75;;;8.23;;
21448;SDS011;10885;52.830;13.788;2022-09-30T07:38:37;24.83;;;6.65;;
21448;SDS011;10885;52.830;13.788;2022-09-30T07:44:00;13.02;;;5.97;;
21448;SDS011;10885;52.830;13.788;2022-09-30T07:49:24;8.80;;;6.20;;
21448;SDS011;10885;52.830;13.788;2022-09-30T07:54:45;9.10;;;5.10;;
21448;SDS011;10885;52.830;13.788;2022-09-30T08:00:10;9.90;;;5.90;;
21448;SDS011;10885;52.830;13.788;2022-09-30T08:11:12;8.52;;;6.25;;
21448;SDS011;10885;52.830;13.788;2022-09-30T08:16:34;34.30;;;8.40;;
21448;SDS011;10885;52.830;13.788;2022-09-30T08:21:55;6.22;;;5.63;;
21448;SDS011;10885;52.830;13.788;2022-09-30T08:27:17;15.20;;;6.07;;
21448;SDS011;10885;52.830;13.788;2022-09-30T08:37:58;14.57;;;5.95;;
21448;SDS011;10885;52.830;13.788;2022-09-30T08:48:57;9.95;;;5.55;;
21448;SDS011;10885;52.830;13.788;2022-09-30T08:54:43;24.92;;;5.97;;
21448;SDS011;10885;52.830;13.788;2022-09-30T09:00:11;8.05;;;5.05;;
21448;SDS011;10885;52.830;13.788;2022-09-30T09:11:36;35.60;;;7.25;;
21448;SDS011;10885;52.830;13.788;2022-09-30T09:22:38;4.80;;;4.22;;
21448;SDS011;10885;52.830;13.788;2022-09-30T09:28:01;5.18;;;3.97;;
21448;SDS011;10885;52.830;13.788;2022-09-30T09:33:29;4.93;;;3.63;;
21448;SDS011;10885;52.830;13.788;2022-09-30T09:39:06;8.65;;;4.20;;
21448;SDS011;10885;52.830;13.788;2022-09-30T09:44:58;4.25;;;3.85;;
21448;SDS011;10885;52.830;13.788;2022-09-30T09:50:24;3.97;;;3.53;;
21448;SDS011;10885;52.830;13.788;2022-09-30T09:55:57;3.65;;;3.35;;
21448;SDS011;10885;52.830;13.788;2022-09-30T10:01:19;4.30;;;3.30;;
21448;SDS011;10885;52.830;13.788;2022-09-30T10:07:12;4.30;;;3.22;;
21448;SDS011;10885;52.830;13.788;2022-09-30T10:12:34;3.97;;;3.10;;
21448;SDS011;10885;52.830;13.788;2022-09-30T10:17:56;2.97;;;2.40;;
21448;SDS011;10885;52.830;13.788;2022-09-30T10:23:25;2.83;;;2.33;;
21448;SDS011;10885;52.830;13.788;2022-09-30T10:28:55;2.40;;;2.20;;
21448;SDS011;10885;52.830;13.788;2022-09-30T10:39:47;8.65;;;3.03;;
21448;SDS011;10885;52.830;13.788;2022-09-30T10:45:22;4.13;;;2.42;;
21448;SDS011;10885;52.830;13.788;2022-09-30T10:50:56;2.90;;;2.47;;
21448;SDS011;10885;52.830;13.788;2022-09-30T10:56:30;4.60;;;3.42;;
21448;SDS011;10885;52.830;13.788;2022-09-30T11:02:02;5.57;;;3.60;;
21448;SDS011;10885;52.830;13.788;2022-09-30T11:13:12;18.48;;;7.32;;
21448;SDS011;10885;52.830;13.788;2022-09-30T11:24:19;26.80;;;11.98;;
21448;SDS011;10885;52.830;13.788;2022-09-30T12:03:41;5.90;;;2.80;;
21448;SDS011;10885;52.830;13.788;2022-09-30T12:09:11;4.78;;;2.45;;
21448;SDS011;10885;52.830;13.788;2022-09-30T12:25:48;45.70;;;19.33;;
21448;SDS011;10885;52.830;13.788;2022-09-30T12:31:23;8.93;;;5.10;;
21448;SDS011;10885;52.830;13.788;2022-09-30T12:48:56;3.25;;;2.47;;
21448;SDS011;10885;52.830;13.788;2022-09-30T12:54:23;5.03;;;2.20;;
21448;SDS011;10885;52.830;13.788;2022-09-30T12:59:53;4.00;;;3.25;;
21448;SDS011;10885;52.830;13.788;2022-09-30T13:10:46;5.67;;;3.23;;
21448;SDS011;10885;52.830;13.788;2022-09-30T13:16:16;8.20;;;3.42;;
21448;SDS011;10885;52.830;13.788;2022-09-30T13:27:44;5.18;;;3.08;;
21448;SDS011;10885;52.830;13.788;2022-09-30T13:33:25;3.13;;;2.67;;
21448;SDS011;10885;52.830;13.788;2022-09-30T13:39:15;3.85;;;2.85;;
21448;SDS011;10885;52.830;13.788;2022-09-30T13:50:51;3.33;;;2.30;;
21448;SDS011;10885;52.830;13.788;2022-09-30T13:56:18;5.82;;;2.83;;
21448;SDS011;10885;52.830;13.788;2022-09-30T14:24:02;3.50;;;2.08;;
21448;SDS011;10885;52.830;13.788;2022-09-30T14:29:30;3.67;;;2.15;;
21448;SDS011;10885;52.830;13.788;2022-09-30T14:34:58;2.50;;;1.83;;
21448;SDS011;10885;52.830;13.788;2022-09-30T14:40:37;2.28;;;1.92;;
21448;SDS011;10885;52.830;13.788;2022-09-30T14:46:13;8.55;;;2.40;;
21448;SDS011;10885;52.830;13.788;2022-09-30T14:51:44;3.03;;;2.10;;
21448;SDS011;10885;52.830;13.788;2022-09-30T14:57:14;3.10;;;2.08;;
21448;SDS011;10885;52.830;13.788;2022-09-30T15:02:37;3.40;;;2.03;;
21448;SDS011;10885;52.830;13.788;2022-09-30T15:08:10;2.90;;;2.00;;
21448;SDS011;10885;52.830;13.788;2022-09-30T15:13:36;8.68;;;2.58;;
21448;SDS011;10885;52.830;13.788;2022-09-30T15:19:00;2.85;;;1.80;;
21448;SDS011;10885;52.830;13.788;2022-09-30T15:24:21;4.90;;;2.58;;
21448;SDS011;10885;52.830;13.788;2022-09-30T15:35:41;3.72;;;2.35;;
21448;SDS011;10885;52.830;13.788;2022-09-30T15:41:04;4.78;;;2.13;;
21448;SDS011;10885;52.830;13.788;2022-09-30T15:46:30;5.60;;;2.80;;
21448;SDS011;10885;52.830;13.788;2022-09-30T15:51:55;6.85;;;2.90;;
21448;SDS011;10885;52.830;13.788;2022-09-30T15:57:52;4.85;;;3.22;;
21448;SDS011;10885;52.830;13.788;2022-09-30T16:08:48;5.63;;;2.85;;
21448;SDS011;10885;52.830;13.788;2022-09-30T16:14:17;2.97;;;2.30;;
21448;SDS011;10885;52.830;13.788;2022-09-30T16:19:56;6.18;;;2.30;;
21448;SDS011;10885;52.830;13.788;2022-09-30T16:25:28;8.55;;;2.60;;
21448;SDS011;10885;52.830;13.788;2022-09-30T16:30:54;4.13;;;3.20;;
21448;SDS011;10885;52.830;13.788;2022-09-30T16:36:15;3.78;;;2.35;;
21448;SDS011;10885;52.830;13.788;2022-09-30T16:46:57;5.20;;;2.63;;
21448;SDS011;10885;52.830;13.788;2022-09-30T16:57:39;4.68;;;2.72;;
21448;SDS011;10885;52.830;13.788;2022-09-30T17:03:00;6.03;;;3.03;;
21448;SDS011;10885;52.830;13.788;2022-09-30T17:08:21;3.08;;;2.30;;
21448;SDS011;10885;52.830;13.788;2022-09-30T17:13:43;4.30;;;3.40;;
21448;SDS011;10885;52.830;13.788;2022-09-30T17:19:04;6.55;;;2.95;;
21448;SDS011;10885;52.830;13.788;2022-09-30T17:29:46;3.42;;;2.97;;
21448;SDS011;10885;52.830;13.788;2022-09-30T17:35:08;5.07;;;3.40;;
21448;SDS011;10885;52.830;13.788;2022-09-30T17:40:29;7.38;;;3.40;;
21448;SDS011;10885;52.830;13.788;2022-09-30T17:46:08;5.57;;;3.42;;
21448;SDS011;10885;52.830;13.788;2022-09-30T17:56:50;9.23;;;3.20;;
21448;SDS011;10885;52.830;13.788;2022-09-30T18:07:37;3.85;;;2.92;;
21448;SDS011;10885;52.830;13.788;2022-09-30T18:12:58;3.53;;;2.83;;
21448;SDS011;10885;52.830;13.788;2022-09-30T18:23:39;6.03;;;3.20;;
21448;SDS011;10885;52.830;13.788;2022-09-30T18:34:21;4.93;;;3.30;;
21448;SDS011;10885;52.830;13.788;2022-09-30T18:39:43;8.70;;;3.85;;
21448;SDS011;10885;52.830;13.788;2022-09-30T18:45:04;7.28;;;4.55;;
21448;SDS011;10885;52.830;13.788;2022-09-30T18:50:26;6.35;;;4.22;;
21448;SDS011;10885;52.830;13.788;2022-09-30T18:55:48;7.53;;;4.47;;
21448;SDS011;10885;52.830;13.788;2022-09-30T19:01:09;5.95;;;4.38;;
21448;SDS011;10885;52.830;13.788;2022-09-30T19:06:30;9.73;;;4.90;;
21448;SDS011;10885;52.830;13.788;2022-09-30T19:11:51;7.55;;;4.72;;
21448;SDS011;10885;52.830;13.788;2022-09-30T19:17:13;9.32;;;5.35;;
21448;SDS011;10885;52.830;13.788;2022-09-30T19:22:35;5.80;;;4.68;;
21448;SDS011;10885;52.830;13.788;2022-09-30T19:27:56;6.30;;;5.13;;
21448;SDS011;10885;52.830;13.788;2022-09-30T19:33:19;11.88;;;4.50;;
21448;SDS011;10885;52.830;13.788;2022-09-30T19:38:42;6.57;;;4.40;;
21448;SDS011;10885;52.830;13.788;2022-09-30T19:44:05;6.57;;;4.30;;
21448;SDS011;10885;52.830;13.788;2022-09-30T19:49:26;7.82;;;4.82;;
21448;SDS011;10885;52.830;13.788;2022-09-30T19:54:47;8.02;;;4.78;;
21448;SDS011;10885;52.830;13.788;2022-09-30T20:00:11;9.98;;;4.80;;
21448;SDS011;10885;52.830;13.788;2022-09-30T20:05:32;8.52;;;5.05;;
21448;SDS011;10885;52.830;13.788;2022-09-30T20:10:59;8.75;;;5.10;;
21448;SDS011;10885;52.830;13.788;2022-09-30T20:16:21;28.73;;;15.68;;
21448;SDS011;10885;52.830;13.788;2022-09-30T20:21:43;20.40;;;12.10;;
21448;SDS011;10885;52.830;13.788;2022-09-30T20:27:05;16.88;;;8.93;;
21448;SDS011;10885;52.830;13.788;2022-09-30T20:32:26;17.83;;;8.88;;
21448;SDS011;10885;52.830;13.788;2022-09-30T20:37:50;18.90;;;8.35;;
21448;SDS011;10885;52.830;13.788;2022-09-30T20:43:10;8.50;;;6.85;;
21448;SDS011;10885;52.830;13.788;2022-09-30T20:48:33;9.13;;;6.40;;
21448;SDS011;10885;52.830;13.788;2022-09-30T20:53:55;10.82;;;7.10;;
21448;SDS011;10885;52.830;13.788;2022-09-30T20:59:18;10.55;;;7.03;;
21448;SDS011;10885;52.830;13.788;2022-09-30T21:04:38;8.52;;;6.90;;
21448;SDS011;10885;52.830;13.788;2022-09-30T21:09:59;13.88;;;7.05;;
21448;SDS011;10885;52.830;13.788;2022-09-30T21:15:20;12.00;;;7.13;;
21448;SDS011;10885;52.830;13.788;2022-09-30T21:20:41;10.70;;;6.55;;
21448;SDS011;10885;52.830;13.788;2022-09-30T21:26:03;11.15;;;6.78;;
21448;SDS011;10885;52.830;13.788;2022-09-30T21:31:25;10.63;;;6.70;;
21448;SDS011;10885;52.830;13.788;2022-09-30T21:36:47;11.73;;;7.07;;
21448;SDS011;10885;52.830;13.788;2022-09-30T21:42:08;9.50;;;6.32;;
21448;SDS011;10885;52.830;13.788;2022-09-30T21:47:29;10.77;;;7.32;;
21448;SDS011;10885;52.830;13.788;2022-09-30T21:52:50;11.00;;;7.22;;
21448;SDS011;10885;52.830;13.788;2022-09-30T21:58:11;10.05;;;6.90;;
